createdAt,value
2022-09-12T00:00:52.539Z,15.60
2022-09-12T00:03:19.595Z,15.60
2022-09-12T00:05:47.949Z,15.50
2022-09-12T00:08:17.810Z,15.40
2022-09-12T00:10:45.496Z,15.30
2022-09-12T00:13:12.728Z,15.20
2022-09-12T00:15:44.875Z,15.20
2022-09-12T00:18:16.892Z,15.20
2022-09-12T00:20:47.766Z,15.30
2022-09-12T00:23:15.398Z,15.30
2022-09-12T00:25:44.387Z,15.30
2022-09-12T00:28:12.279Z,15.30
2022-09-12T00:30:47.261Z,15.30
2022-09-12T00:33:16.350Z,15.30
2022-09-12T00:35:52.986Z,15.30
2022-09-12T00:38:21.231Z,15.30
2022-09-12T00:40:49.629Z,15.40
2022-09-12T00:43:41.664Z,15.50
2022-09-12T00:46:44.727Z,15.40
2022-09-12T00:49:23.379Z,15.40
2022-09-12T00:52:01.635Z,15.40
2022-09-12T00:54:34.322Z,15.40
2022-09-12T00:57:04.516Z,15.40
2022-09-12T00:59:41.490Z,15.30
2022-09-12T01:02:09.095Z,15.20
2022-09-12T01:04:39.581Z,15.10
2022-09-12T01:07:07.528Z,15.00
2022-09-12T01:09:36.626Z,15.00
2022-09-12T01:12:05.110Z,15.00
2022-09-12T01:14:32.552Z,15.00
2022-09-12T01:16:59.506Z,14.90
2022-09-12T01:19:32.351Z,14.90
2022-09-12T01:22:22.944Z,14.90
2022-09-12T01:25:12.727Z,14.90
2022-09-12T01:28:13.363Z,14.90
2022-09-12T01:31:13.210Z,14.90
2022-09-12T01:33:58.699Z,15.00
2022-09-12T01:36:51.372Z,15.00
2022-09-12T01:39:43.110Z,15.00
2022-09-12T01:42:42.055Z,15.00
2022-09-12T01:45:38.938Z,15.10
2022-09-12T01:48:10.873Z,15.00
2022-09-12T01:50:44.569Z,15.00
2022-09-12T01:53:20.950Z,14.90
2022-09-12T01:55:57.112Z,14.90
2022-09-12T01:58:44.996Z,14.90
2022-09-12T02:01:17.579Z,14.90
2022-09-12T02:03:56.899Z,14.90
2022-09-12T02:06:46.744Z,14.90
2022-09-12T02:09:21.285Z,14.90
2022-09-12T02:11:51.691Z,14.90
2022-09-12T02:14:24.920Z,14.90
2022-09-12T02:16:59.799Z,14.90
2022-09-12T02:19:36.475Z,14.90
2022-09-12T02:22:06.280Z,14.80
2022-09-12T02:24:43.438Z,14.80
2022-09-12T02:27:24.698Z,14.80
2022-09-12T02:29:52.290Z,14.80
2022-09-12T02:32:35.419Z,14.80
2022-09-12T02:35:09.156Z,14.80
2022-09-12T02:37:57.708Z,14.80
2022-09-12T02:40:25.628Z,14.80
2022-09-12T02:42:53.060Z,14.80
2022-09-12T02:45:20.686Z,14.80
2022-09-12T02:48:04.819Z,14.80
2022-09-12T02:50:32.740Z,14.80
2022-09-12T02:53:04.619Z,14.70
2022-09-12T02:55:35.443Z,14.70
2022-09-12T02:58:06.689Z,14.60
2022-09-12T03:00:46.673Z,14.60
2022-09-12T03:03:43.574Z,14.60
2022-09-12T03:06:51.487Z,14.50
2022-09-12T03:09:41.529Z,14.50
2022-09-12T03:12:46.744Z,14.50
2022-09-12T03:15:28.593Z,14.50
2022-09-12T03:17:58.557Z,14.50
2022-09-12T03:20:40.400Z,14.50
2022-09-12T03:23:39.268Z,14.50
2022-09-12T03:26:42.625Z,14.50
2022-09-12T03:29:11.967Z,14.50
2022-09-12T03:31:49.951Z,14.50
2022-09-12T03:34:16.892Z,14.50
2022-09-12T03:36:43.731Z,14.50
2022-09-12T03:39:10.710Z,14.50
2022-09-12T03:41:37.656Z,14.50
2022-09-12T03:44:04.897Z,14.40
2022-09-12T03:46:32.000Z,14.40
2022-09-12T03:48:59.148Z,14.40
2022-09-12T03:51:26.410Z,14.40
2022-09-12T03:53:53.712Z,14.50
2022-09-12T03:56:20.884Z,14.60
2022-09-12T03:58:47.899Z,14.50
2022-09-12T04:01:17.737Z,14.40
2022-09-12T04:03:46.712Z,14.40
2022-09-12T04:06:15.873Z,14.50
2022-09-12T04:08:43.901Z,14.50
2022-09-12T04:11:15.359Z,14.50
2022-09-12T04:13:44.952Z,14.40
2022-09-12T04:16:14.183Z,14.40
2022-09-12T04:18:41.148Z,14.40
2022-09-12T04:21:11.852Z,14.40
2022-09-12T04:23:38.827Z,14.50
2022-09-12T04:26:06.581Z,14.40
2022-09-12T04:28:35.752Z,14.40
2022-09-12T04:31:05.102Z,14.50
2022-09-12T04:33:37.365Z,14.50
2022-09-12T04:36:17.908Z,14.60
2022-09-12T04:38:47.937Z,14.70
2022-09-12T04:41:19.486Z,14.60
2022-09-12T04:43:52.755Z,14.60
2022-09-12T04:46:20.562Z,14.70
2022-09-12T04:48:52.197Z,14.60
2022-09-12T04:51:27.911Z,14.60
2022-09-12T04:53:59.146Z,14.60
2022-09-12T04:56:27.914Z,14.60
2022-09-12T04:58:57.273Z,14.60
2022-09-12T05:01:24.585Z,14.60
2022-09-12T05:03:52.253Z,14.60
2022-09-12T05:06:24.546Z,14.60
2022-09-12T05:08:52.709Z,14.60
2022-09-12T05:11:33.004Z,14.60
2022-09-12T05:14:08.705Z,14.60
2022-09-12T05:16:36.523Z,14.50
2022-09-12T05:19:04.622Z,14.50
2022-09-12T05:21:32.497Z,14.50
2022-09-12T05:24:00.128Z,14.60
2022-09-12T05:26:27.432Z,14.60
2022-09-12T05:28:55.232Z,14.60
2022-09-12T05:31:25.014Z,14.60
2022-09-12T05:33:53.627Z,14.50
2022-09-12T05:36:23.972Z,14.50
2022-09-12T05:38:51.256Z,14.50
2022-09-12T05:41:24.701Z,14.50
2022-09-12T05:44:00.652Z,14.60
2022-09-12T05:46:30.285Z,14.60
2022-09-12T05:48:58.480Z,14.60
2022-09-12T05:51:28.505Z,14.60
2022-09-12T05:53:57.621Z,14.60
2022-09-12T05:56:27.436Z,14.60
2022-09-12T05:59:02.481Z,14.60
2022-09-12T06:01:32.007Z,14.60
2022-09-12T06:04:00.996Z,14.60
2022-09-12T06:06:29.687Z,14.60
2022-09-12T06:08:59.320Z,14.60
2022-09-12T06:11:28.834Z,14.60
2022-09-12T06:13:57.559Z,14.60
2022-09-12T06:16:27.513Z,14.60
2022-09-12T06:18:57.186Z,14.60
2022-09-12T06:21:26.495Z,14.60
2022-09-12T06:23:59.005Z,14.60
2022-09-12T06:26:27.348Z,14.60
2022-09-12T06:28:56.603Z,14.60
2022-09-12T06:31:32.449Z,14.60
2022-09-12T06:34:07.322Z,14.70
2022-09-12T06:36:38.449Z,14.80
2022-09-12T06:39:09.720Z,14.80
2022-09-12T06:41:39.381Z,14.90
2022-09-12T06:44:16.890Z,14.80
2022-09-12T06:46:44.476Z,14.80
2022-09-12T06:49:12.010Z,14.80
2022-09-12T06:51:43.356Z,14.70
2022-09-12T06:54:14.265Z,14.80
2022-09-12T06:56:41.678Z,14.80
2022-09-12T06:59:11.307Z,14.90
2022-09-12T07:01:38.942Z,14.90
2022-09-12T07:04:08.550Z,15.00
2022-09-12T07:06:38.870Z,15.00
2022-09-12T07:09:11.216Z,15.10
2022-09-12T07:11:40.683Z,15.20
2022-09-12T07:14:10.232Z,15.30
2022-09-12T07:16:37.456Z,15.40
2022-09-12T07:19:07.075Z,15.50
2022-09-12T07:21:39.581Z,15.60
2022-09-12T07:24:08.954Z,15.70
2022-09-12T07:26:36.627Z,15.70
2022-09-12T07:29:32.241Z,15.70
2022-09-12T07:31:52.300Z,15.80
2022-09-12T07:34:21.708Z,15.90
2022-09-12T07:36:48.639Z,16.00
2022-09-12T07:39:17.106Z,16.10
2022-09-12T07:41:44.042Z,16.20
2022-09-12T07:44:11.115Z,16.30
2022-09-12T07:46:40.059Z,16.40
2022-09-12T07:49:08.553Z,16.50
2022-09-12T07:51:36.140Z,16.60
2022-09-12T07:54:07.299Z,16.70
2022-09-12T07:56:38.741Z,16.80
2022-09-12T07:59:06.946Z,17.00
2022-09-12T08:01:34.385Z,17.10
2022-09-12T08:04:01.684Z,17.20
2022-09-12T08:06:32.440Z,17.40
2022-09-12T08:08:59.909Z,17.50
2022-09-12T08:11:28.505Z,17.60
2022-09-12T08:13:57.600Z,17.70
2022-09-12T08:16:31.133Z,17.80
2022-09-12T08:18:59.986Z,18.00
2022-09-12T08:21:29.505Z,18.10
2022-09-12T08:24:05.094Z,18.20
2022-09-12T08:26:33.897Z,18.40
2022-09-12T08:29:01.027Z,18.40
2022-09-12T08:31:28.842Z,18.50
2022-09-12T08:33:56.979Z,18.60
2022-09-12T08:36:26.517Z,18.80
2022-09-12T08:39:02.937Z,18.80
2022-09-12T08:41:34.890Z,19.00
2022-09-12T08:44:26.806Z,19.20
2022-09-12T08:47:04.005Z,19.20
2022-09-12T08:49:42.543Z,19.50
2022-09-12T08:52:17.311Z,19.50
2022-09-12T08:54:48.089Z,19.70
2022-09-12T08:57:18.805Z,19.70
2022-09-12T08:59:48.300Z,19.80
2022-09-12T09:02:43.762Z,19.90
2022-09-12T09:05:20.360Z,20.00
2022-09-12T09:08:22.295Z,20.20
2022-09-12T09:10:57.568Z,20.20
2022-09-12T09:14:06.138Z,20.30
2022-09-12T09:16:41.175Z,20.30
2022-09-12T09:19:38.041Z,20.60
2022-09-12T09:22:13.740Z,20.70
2022-09-12T09:24:53.387Z,20.80
2022-09-12T09:27:47.437Z,20.70
2022-09-12T09:30:19.902Z,20.90
2022-09-12T09:32:55.242Z,20.90
2022-09-12T09:35:42.150Z,21.00
2022-09-12T09:38:36.196Z,20.90
2022-09-12T09:41:15.047Z,21.10
2022-09-12T09:43:42.118Z,21.00
2022-09-12T09:46:09.877Z,21.20
2022-09-12T09:48:40.841Z,21.20
2022-09-12T09:51:09.430Z,21.30
2022-09-12T09:54:01.706Z,21.40
2022-09-12T09:56:42.671Z,21.60
2022-09-12T09:59:18.036Z,21.60
2022-09-12T10:02:26.540Z,21.70
2022-09-12T10:04:58.783Z,21.50
2022-09-12T10:07:28.089Z,21.70
2022-09-12T10:10:06.560Z,21.80
2022-09-12T10:12:33.701Z,22.00
2022-09-12T10:15:04.940Z,22.00
2022-09-12T10:17:44.320Z,22.10
2022-09-12T10:20:33.205Z,22.20
2022-09-12T10:23:03.024Z,22.20
2022-09-12T10:25:30.038Z,22.40
2022-09-12T10:28:00.612Z,22.50
2022-09-12T10:30:28.922Z,22.40
2022-09-12T10:33:08.632Z,22.60
2022-09-12T10:35:49.856Z,22.70
2022-09-12T10:38:32.511Z,22.80
2022-09-12T10:41:11.364Z,22.70
2022-09-12T10:43:41.571Z,22.80
2022-09-12T10:46:31.365Z,23.00
2022-09-12T10:49:21.413Z,23.00
2022-09-12T10:51:49.304Z,23.20
2022-09-12T10:54:22.627Z,23.20
2022-09-12T10:56:53.201Z,23.50
2022-09-12T10:59:34.314Z,23.50
2022-09-12T11:02:05.724Z,23.40
2022-09-12T11:05:18.352Z,23.40
2022-09-12T11:07:55.934Z,23.60
2022-09-12T11:10:37.327Z,23.70
2022-09-12T11:13:17.817Z,23.70
2022-09-12T11:16:02.871Z,23.70
2022-09-12T11:18:51.874Z,23.70
2022-09-12T11:21:56.309Z,23.70
2022-09-12T11:24:45.939Z,24.00
2022-09-12T11:27:30.796Z,24.00
2022-09-12T11:30:14.102Z,24.00
2022-09-12T11:32:47.268Z,24.10
2022-09-12T11:35:37.515Z,24.10
2022-09-12T11:38:23.364Z,24.00
2022-09-12T11:40:55.899Z,24.30
2022-09-12T11:43:36.928Z,24.40
2022-09-12T11:46:13.532Z,24.60
2022-09-12T11:48:59.042Z,24.50
2022-09-12T11:51:37.156Z,24.50
2022-09-12T11:54:09.558Z,24.60
2022-09-12T11:56:42.629Z,24.90
2022-09-12T11:59:19.048Z,25.00
2022-09-12T12:01:51.574Z,24.90
2022-09-12T12:04:28.886Z,25.00
2022-09-12T12:07:04.661Z,24.90
2022-09-12T12:09:32.993Z,25.10
2022-09-12T12:12:07.915Z,25.10
2022-09-12T12:14:43.695Z,25.30
2022-09-12T12:17:22.830Z,25.30
2022-09-12T12:20:08.718Z,25.30
2022-09-12T12:22:36.238Z,25.40
2022-09-12T12:25:17.221Z,25.40
2022-09-12T12:27:55.518Z,25.30
2022-09-12T12:30:32.004Z,25.20
2022-09-12T12:33:48.966Z,25.60
2022-09-12T12:36:36.830Z,25.20
2022-09-12T12:39:32.658Z,25.60
2022-09-12T12:42:01.207Z,25.50
2022-09-12T12:44:49.250Z,25.70
2022-09-12T12:47:39.461Z,25.90
2022-09-12T12:50:12.768Z,25.90
2022-09-12T12:53:26.069Z,25.90
2022-09-12T12:55:55.030Z,26.10
2022-09-12T12:58:37.242Z,25.80
2022-09-12T13:01:20.358Z,25.60
2022-09-12T13:03:59.734Z,25.70
2022-09-12T13:06:34.375Z,25.90
2022-09-12T13:09:19.317Z,26.10
2022-09-12T13:11:47.119Z,25.70
2022-09-12T13:14:37.852Z,25.50
2022-09-12T13:17:07.012Z,25.60
2022-09-12T13:19:38.030Z,25.80
2022-09-12T13:22:10.109Z,25.90
2022-09-12T13:24:49.161Z,26.20
2022-09-12T13:27:25.485Z,26.10
2022-09-12T13:30:15.294Z,26.30
2022-09-12T13:32:43.669Z,26.20
2022-09-12T13:35:47.770Z,25.70
2022-09-12T13:38:42.852Z,26.00
2022-09-12T13:41:53.547Z,26.40
2022-09-12T13:44:24.684Z,26.30
2022-09-12T13:46:52.985Z,25.90
2022-09-12T13:49:29.842Z,25.80
2022-09-12T13:52:02.630Z,25.90
2022-09-12T13:54:31.098Z,25.90
2022-09-12T13:56:59.786Z,26.00
2022-09-12T13:59:26.830Z,26.30
2022-09-12T14:01:53.747Z,26.40
2022-09-12T14:04:59.751Z,26.40
2022-09-12T14:07:27.100Z,26.30
2022-09-12T14:09:59.539Z,26.20
2022-09-12T14:12:36.555Z,25.80
2022-09-12T14:15:03.924Z,26.10
2022-09-12T14:17:31.877Z,26.00
2022-09-12T14:20:03.858Z,26.00
2022-09-12T14:22:31.352Z,26.20
2022-09-12T14:24:59.634Z,26.40
2022-09-12T14:27:31.451Z,26.70
2022-09-12T14:30:20.104Z,26.70
2022-09-12T14:33:03.805Z,26.60
2022-09-12T14:35:33.226Z,26.50
2022-09-12T14:38:09.294Z,26.70
2022-09-12T14:40:46.018Z,26.60
2022-09-12T14:43:25.966Z,26.20
2022-09-12T14:45:57.167Z,26.40
2022-09-12T14:48:25.094Z,26.60
2022-09-12T14:50:53.375Z,26.40
2022-09-12T14:53:25.495Z,26.50
2022-09-12T14:55:58.272Z,26.20
2022-09-12T14:58:33.106Z,26.20
2022-09-12T15:01:06.554Z,26.10
2022-09-12T15:03:54.404Z,26.20
2022-09-12T15:06:32.989Z,26.00
2022-09-12T15:09:06.040Z,26.00
2022-09-12T15:11:33.841Z,26.20
2022-09-12T15:14:13.214Z,26.10
2022-09-12T15:16:40.318Z,26.30
2022-09-12T15:19:07.212Z,26.60
2022-09-12T15:21:34.225Z,26.70
2022-09-12T15:24:01.317Z,26.80
2022-09-12T15:26:30.644Z,26.70
2022-09-12T15:28:58.148Z,26.90
2022-09-12T15:31:27.881Z,26.80
2022-09-12T15:33:56.495Z,26.70
2022-09-12T15:36:25.348Z,26.70
2022-09-12T15:38:53.519Z,26.30
2022-09-12T15:41:32.125Z,26.00
2022-09-12T15:44:00.524Z,25.90
2022-09-12T15:46:29.754Z,25.80
2022-09-12T15:48:56.728Z,25.60
2022-09-12T15:51:23.594Z,25.70
2022-09-12T15:53:51.538Z,26.00
2022-09-12T15:56:21.128Z,26.00
2022-09-12T15:58:58.646Z,26.00
2022-09-12T16:01:27.939Z,26.10
2022-09-12T16:03:54.964Z,26.00
2022-09-12T16:06:22.567Z,26.00
2022-09-12T16:08:49.609Z,26.00
2022-09-12T16:11:27.010Z,25.80
2022-09-12T16:13:55.706Z,25.70
2022-09-12T16:16:22.866Z,25.70
2022-09-12T16:18:49.999Z,25.70
2022-09-12T16:21:17.327Z,25.90
2022-09-12T16:23:45.552Z,25.90
2022-09-12T16:26:12.658Z,25.80
2022-09-12T16:28:40.233Z,25.60
2022-09-12T16:31:10.354Z,25.50
2022-09-12T16:33:38.937Z,25.30
2022-09-12T16:36:11.719Z,25.20
2022-09-12T16:38:47.654Z,25.30
2022-09-12T16:41:16.438Z,25.20
2022-09-12T16:43:44.082Z,25.10
2022-09-12T16:46:16.034Z,25.10
2022-09-12T16:48:50.913Z,25.00
2022-09-12T16:51:21.897Z,24.80
2022-09-12T16:53:50.713Z,24.80
2022-09-12T16:56:18.644Z,24.70
2022-09-12T16:58:46.227Z,24.60
2022-09-12T17:01:16.395Z,24.60
2022-09-12T17:03:43.866Z,24.50
2022-09-12T17:06:18.479Z,24.50
2022-09-12T17:08:48.802Z,24.40
2022-09-12T17:11:17.903Z,24.40
2022-09-12T17:14:04.331Z,24.40
2022-09-12T17:16:33.999Z,24.40
2022-09-12T17:19:02.063Z,24.20
2022-09-12T17:21:28.973Z,24.20
2022-09-12T17:23:56.312Z,24.20
2022-09-12T17:26:23.314Z,24.10
2022-09-12T17:28:50.568Z,24.10
2022-09-12T17:31:17.492Z,24.10
2022-09-12T17:33:44.571Z,24.00
2022-09-12T17:36:16.784Z,23.90
2022-09-12T17:38:46.004Z,23.90
2022-09-12T17:41:18.717Z,23.70
2022-09-12T17:43:47.969Z,23.70
2022-09-12T17:46:15.243Z,23.70
2022-09-12T17:48:42.287Z,23.70
2022-09-12T17:51:10.979Z,23.70
2022-09-12T17:53:38.266Z,23.60
2022-09-12T17:56:06.930Z,23.50
2022-09-12T17:58:35.014Z,23.40
2022-09-12T18:01:26.539Z,23.40
2022-09-12T18:03:55.737Z,23.30
2022-09-12T18:06:23.872Z,23.30
2022-09-12T18:08:50.906Z,23.20
2022-09-12T18:11:18.696Z,23.30
2022-09-12T18:13:52.019Z,23.30
2022-09-12T18:16:19.326Z,23.20
2022-09-12T18:18:46.515Z,23.00
2022-09-12T18:21:13.598Z,22.90
2022-09-12T18:23:40.590Z,22.90
2022-09-12T18:26:10.295Z,22.80
2022-09-12T18:28:42.103Z,22.70
2022-09-12T18:31:18.248Z,22.70
2022-09-12T18:33:49.115Z,22.60
2022-09-12T18:36:17.751Z,22.50
2022-09-12T18:38:45.323Z,22.40
2022-09-12T18:41:17.601Z,22.30
2022-09-12T18:43:58.487Z,22.30
2022-09-12T18:46:31.909Z,22.20
2022-09-12T18:49:02.491Z,22.10
2022-09-12T18:51:32.915Z,22.00
2022-09-12T18:54:03.093Z,21.80
2022-09-12T18:56:34.901Z,21.60
2022-09-12T18:59:07.948Z,21.50
2022-09-12T19:01:37.466Z,21.50
2022-09-12T19:04:06.426Z,21.40
2022-09-12T19:06:39.819Z,21.30
2022-09-12T19:09:11.551Z,21.20
2022-09-12T19:11:40.155Z,21.20
2022-09-12T19:14:10.504Z,21.20
2022-09-12T19:16:38.577Z,21.10
2022-09-12T19:19:06.460Z,21.10
2022-09-12T19:21:37.594Z,21.00
2022-09-12T19:24:10.088Z,21.00
2022-09-12T19:26:38.982Z,21.00
2022-09-12T19:29:07.265Z,20.90
2022-09-12T19:31:34.623Z,20.80
2022-09-12T19:34:06.631Z,20.80
2022-09-12T19:36:44.801Z,20.80
2022-09-12T19:39:16.751Z,20.70
2022-09-12T19:41:46.000Z,20.70
2022-09-12T19:44:22.224Z,20.70
2022-09-12T19:47:04.209Z,20.70
2022-09-12T19:49:33.404Z,20.60
2022-09-12T19:52:03.984Z,20.60
2022-09-12T19:54:31.675Z,20.60
2022-09-12T19:57:01.334Z,20.60
2022-09-12T19:59:31.063Z,20.60
2022-09-12T20:01:59.714Z,20.50
2022-09-12T20:04:29.158Z,20.50
2022-09-12T20:06:56.584Z,20.40
2022-09-12T20:09:23.596Z,20.40
2022-09-12T20:11:51.064Z,20.40
2022-09-12T20:14:35.137Z,20.40
2022-09-12T20:17:23.368Z,20.40
2022-09-12T20:19:59.523Z,20.40
2022-09-12T20:22:39.389Z,20.30
2022-09-12T20:25:13.135Z,20.30
2022-09-12T20:27:42.208Z,20.20
2022-09-12T20:30:10.154Z,20.20
2022-09-12T20:32:40.133Z,20.10
2022-09-12T20:35:23.733Z,20.00
2022-09-12T20:38:15.025Z,20.00
2022-09-12T20:40:57.114Z,20.00
2022-09-12T20:43:25.542Z,20.00
2022-09-12T20:46:06.193Z,20.10
2022-09-12T20:48:34.511Z,20.10
2022-09-12T20:51:08.069Z,20.00
2022-09-12T20:53:35.572Z,19.90
2022-09-12T20:56:05.507Z,19.90
2022-09-12T20:59:00.824Z,19.90
2022-09-12T21:01:30.127Z,19.80
2022-09-12T21:03:58.837Z,19.70
2022-09-12T21:06:26.158Z,19.70
2022-09-12T21:08:53.823Z,19.70
2022-09-12T21:11:21.097Z,19.70
2022-09-12T21:13:48.425Z,19.70
2022-09-12T21:16:18.784Z,19.80
2022-09-12T21:18:50.677Z,19.70
2022-09-12T21:21:17.654Z,19.80
2022-09-12T21:23:44.591Z,19.80
2022-09-12T21:26:12.226Z,19.90
2022-09-12T21:28:39.740Z,19.90
2022-09-12T21:31:07.126Z,19.90
2022-09-12T21:33:34.256Z,19.80
2022-09-12T21:36:04.622Z,19.80
2022-09-12T21:38:32.206Z,19.80
2022-09-12T21:41:07.892Z,19.80
2022-09-12T21:43:36.852Z,19.80
2022-09-12T21:46:05.725Z,19.80
2022-09-12T21:48:33.711Z,19.80
2022-09-12T21:51:01.365Z,19.80
2022-09-12T21:53:28.594Z,19.80
2022-09-12T21:56:00.401Z,19.80
2022-09-12T21:58:27.218Z,19.80
2022-09-12T22:00:54.209Z,19.80
2022-09-12T22:03:21.157Z,19.80
2022-09-12T22:06:01.858Z,19.80
2022-09-12T22:08:30.266Z,19.80
2022-09-12T22:11:02.595Z,19.80
2022-09-12T22:13:33.809Z,19.80
2022-09-12T22:16:03.174Z,19.80
2022-09-12T22:18:34.188Z,19.80
2022-09-12T22:21:07.200Z,19.90
2022-09-12T22:23:53.026Z,19.80
2022-09-12T22:26:20.508Z,19.80
2022-09-12T22:28:47.771Z,19.80
2022-09-12T22:31:15.379Z,19.70
2022-09-12T22:33:42.484Z,19.60
2022-09-12T22:36:11.287Z,19.60
2022-09-12T22:38:38.390Z,19.50
2022-09-12T22:41:07.351Z,19.50
2022-09-12T22:43:35.320Z,19.40
2022-09-12T22:46:05.482Z,19.40
2022-09-12T22:48:32.399Z,19.40
2022-09-12T22:50:59.358Z,19.40
2022-09-12T22:53:26.452Z,19.40
2022-09-12T22:55:53.761Z,19.40
2022-09-12T22:58:20.992Z,19.40
2022-09-12T23:00:50.884Z,19.40
2022-09-12T23:03:18.644Z,19.30
2022-09-12T23:05:47.235Z,19.30
2022-09-12T23:08:16.402Z,19.30
2022-09-12T23:10:44.240Z,19.30
2022-09-12T23:13:12.859Z,19.30
2022-09-12T23:15:39.821Z,19.40
2022-09-12T23:18:06.848Z,19.30
2022-09-12T23:20:33.861Z,19.20
2022-09-12T23:23:00.805Z,19.20
2022-09-12T23:25:27.758Z,19.20
2022-09-12T23:27:54.994Z,19.20
2022-09-12T23:30:21.860Z,19.20
2022-09-12T23:32:49.734Z,19.30
2022-09-12T23:35:20.551Z,19.40
2022-09-12T23:37:47.809Z,19.30
2022-09-12T23:40:15.087Z,19.40
2022-09-12T23:42:42.599Z,19.40
2022-09-12T23:45:10.339Z,19.40
2022-09-12T23:47:37.505Z,19.40
2022-09-12T23:50:04.996Z,19.40
2022-09-12T23:52:31.897Z,19.40
2022-09-12T23:54:58.939Z,19.40
2022-09-12T23:57:25.934Z,19.40
2022-09-12T23:59:52.930Z,19.40
